Latest Weather Observations for Cooma Airport

IDN60901

Issued at 9:31 pm EDT Monday 30 March 2015 (issued every 10 minutes, with the page automatically refreshed every 10 minutes)

About weather observations | Map of Canberra area stations | Latest observations for Canberra area | Other Formats
Station Details ID: 070217 Name: COOMA AIRPORT AWS Lat: -36.29 Lon: 148.97 Height: 930.0 m
Data from the previous 72 hours. | See also: Recent months for locations in Aust Capital Territory
Date/Time
EDT
Tmp

°C
App
Tmp
°C
Dew
Point
°C
Rel
Hum
%
Delta-T

°C
Wind Press
QNH
hPa
Press
MSL
hPa
Rain
since
9 am
mm
Dir
 
Spd
km/h
Gust
km/h
Spd
kts
Gust
kts
30/09:00pm 9.8 6.0 6.0 77 1.8 NNE 15 19 8 10 1027.9 1025.3 0.0
30/08:30pm 8.2 4.3 3.5 72 2.1 NE 13 15 7 8 1027.5 1024.8 0.0
30/08:00pm 11.6 8.4 5.0 64 3.2 N 11 13 6 7 1026.8 1024.2 0.0
30/07:30pm 11.2 7.3 3.3 58 3.7 ENE 13 15 7 8 1026.4 1023.7 0.0
30/07:00pm 14.2 11.1 3.4 48 5.1 N 9 11 5 6 1025.8 1023.2 0.0
30/06:30pm 17.1 13.2 3.4 40 6.7 NNE 13 15 7 8 1025.5 1022.8 0.0
30/05:30pm 18.3 14.5 3.8 38 7.2 NNE 13 17 7 9 1025.1 1022.4 0.0
30/05:00pm 17.6 13.9 4.2 41 6.6 NE 13 15 7 8 1024.8 1022.0 0.0
30/04:30pm 18.0 13.5 4.2 40 6.9 NNE 17 20 9 11 1024.5 1021.8 0.0
30/04:00pm 18.6 14.4 3.6 37 7.4 NE 15 20 8 11 1024.5 1021.8 0.0
30/03:30pm 20.3 16.6 4.4 35 8.1 NE 13 20 7 11 1024.5 1021.8 0.0
30/03:00pm 19.6 17.1 3.7 35 7.9 ENE 6 13 3 7 1024.6 1021.9 0.0
30/02:30pm 18.5 14.8 4.7 40 7.0 NE 13 19 7 10 1024.9 1022.1 0.0
30/02:00pm 17.0 12.4 3.7 41 6.5 NE 17 20 9 11 1025.2 1022.5 0.0
30/01:30pm 17.8 14.2 2.9 37 7.2 NE 11 17 6 9 1025.3 1022.6 0.0
30/01:00pm 17.0 12.3 3.3 40 6.6 NE 17 22 9 12 1025.6 1022.9 0.0
30/12:30pm 17.5 13.3 3.8 40 6.7 NE 15 24 8 13 1026.0 1023.3 0.0
30/12:00pm 17.0 13.4 5.0 45 6.0 NE 13 17 7 9 1026.4 1023.7 0.0
30/11:30am 15.4 11.5 3.5 45 5.7 NNE 13 17 7 9 1026.7 1024.0 0.0
30/11:00am 15.0 11.8 5.2 52 4.8 NE 11 15 6 8 1027.1 1024.4 0.0
30/10:30am 11.4 7.8 5.1 65 3.0 NE 13 17 7 9 1027.4 1024.7 0.0
30/10:00am 10.2 6.6 4.8 69 2.6 NE 13 15 7 8 1027.4 1024.7 0.0
30/09:30am 7.2 4.4 5.0 86 1.0 NNE 9 9 5 5 1027.3 1024.6 0.0
30/09:00am 5.5 3.2 4.9 96 0.3 NNE 6 9 3 5 1027.2 1024.5 0.0
30/08:00am 1.3 -1.7 1.0 98 0.1 NNE 6 7 3 4 1026.3 1023.6 0.0
30/07:30am 0.1 -2.4 -0.9 93 0.4 N 2 7 1 4 1026.1 1023.4 0.0
30/07:00am 0.1 -2.0 -0.9 93 0.4 CALM 0 0 0 0 1025.6 1022.9 0.0
30/06:30am 0.7 -1.2 0.6 99 0.0 CALM 0 0 0 0 1025.3 1022.6 0.0
30/05:30am 0.8 -1.2 -0.2 93 0.4 CALM 0 0 0 0 1024.9 1022.1 0.0
30/05:00am 0.7 -1.4 -0.6 91 0.5 CALM 0 0 0 0 1024.6 1021.9 0.0
30/04:30am 2.2 0.4 1.2 93 0.4 CALM 0 0 0 0 1024.4 1021.7 0.0
30/04:00am 3.7 1.1 3.4 98 0.1 SW 6 7 3 4 1024.8 1022.0 0.0
30/03:30am 2.9 1.3 2.2 95 0.3 CALM 0 0 0 0 1024.8 1022.0 0.0
30/03:00am 1.8 0.0 1.4 97 0.2 CALM 0 0 0 0 1024.9 1022.1 0.0
30/02:30am 1.7 -0.9 0.8 94 0.4 WSW 4 9 2 5 1025.0 1022.3 0.0
30/02:00am 3.2 1.3 2.6 96 0.3 ENE 2 7 1 4 1025.2 1022.5 0.0
30/01:30am 3.6 1.7 3.0 96 0.3 SE 2 7 1 4 1025.3 1022.6 0.0
30/01:00am 3.0 0.1 1.7 91 0.5 NNE 6 7 3 4 1025.3 1022.6 0.0
30/12:30am 4.3 2.6 4.2 99 0.0 NE 2 7 1 4 1025.2 1022.5 0.0
 
Date/Time
EDT
Tmp

°C
App
Tmp
°C
Dew
Point
°C
Rel
Hum
%
Delta-T

°C
Wind Press
QNH
hPa
Press
MSL
hPa
Rain
since
9 am
mm
Dir
 
Spd
km/h
Gust
km/h
Spd
kts
Gust
kts
29/11:30pm 4.3 2.3 2.2 86 0.9 NNW 2 9 1 5 1025.2 1022.5 0.0
29/11:00pm 5.4 2.6 3.3 86 0.9 N 7 9 4 5 1025.4 1022.7 0.0
29/10:30pm 6.7 4.0 2.4 74 1.9 N 6 7 3 4 1025.3 1022.6 0.0
29/10:00pm 10.4 7.5 6.5 77 1.9 NNW 11 13 6 7 1025.3 1022.6 0.0
29/09:30pm 10.1 7.3 5.3 72 2.3 N 9 11 5 6 1025.1 1022.4 0.0
29/09:00pm 10.7 8.0 5.7 71 2.4 N 9 11 5 6 1024.6 1021.9 0.0
29/08:30pm 12.6 9.6 5.8 63 3.4 N 11 15 6 8 1024.4 1021.7 0.0
29/08:00pm 12.7 9.0 6.3 65 3.2 E 15 19 8 10 1023.8 1021.0 0.0
29/07:30pm 12.0 9.8 -1.2 40 5.6 CALM 0 0 0 0 1023.2 1020.5 0.0
29/07:00pm 15.2 12.6 -1.4 32 7.2 SW 2 7 1 4 1022.6 1019.8 0.0
29/06:30pm 18.7 13.9 -2.3 24 9.2 SW 13 17 7 9 1022.1 1019.4 0.0
29/06:00pm 21.5 16.1 -4.5 17 11.2 WSW 15 20 8 11 1021.8 1019.0 0.0
29/05:30pm 22.5 18.8 -0.3 22 10.7 WSW 9 17 5 9 1021.6 1018.8 0.0
29/05:00pm 22.6 18.5 -0.2 22 10.7 W 11 17 6 9 1021.5 1018.7 0.0
29/04:30pm 22.5 19.1 -0.9 21 10.9 NW 7 24 4 13 1021.6 1018.8 0.0
29/04:00pm 21.6 18.2 -0.4 23 10.2 N 7 15 4 8 1021.6 1018.8 0.0
29/03:30pm 21.4 17.9 -1.2 22 10.4 N 7 17 4 9 1022.1 1019.4 0.0
29/03:00pm 21.6 18.0 0.8 25 9.9 SW 9 15 5 8 1022.5 1019.7 0.0
29/02:30pm 21.1 17.4 -0.2 24 9.9 S 9 22 5 12 1022.7 1019.9 0.0
29/02:00pm 20.4 17.1 0.3 26 9.4 SSE 7 17 4 9 1023.1 1020.4 0.0
29/01:30pm 19.5 16.0 -1.6 24 9.5 S 7 20 4 11 1023.3 1020.6 0.0
29/01:00pm 19.2 14.2 -4.3 20 9.9 SSE 13 20 7 11 1023.8 1021.0 0.0
29/12:30pm 19.3 14.6 -1.7 24 9.4 SSE 13 19 7 10 1024.1 1021.4 0.0
29/12:00pm 18.2 14.3 -1.6 26 8.7 SSW 9 13 5 7 1024.3 1021.6 0.0
29/11:30am 17.2 15.1 1.6 35 7.3 NE 2 6 1 3 1024.3 1021.6 0.0
29/11:00am 15.3 13.0 5.5 52 4.9 NE 7 11 4 6 1024.5 1021.8 0.0
29/10:30am 12.6 9.4 5.1 60 3.7 NNE 11 15 6 8 1024.6 1021.9 0.0
29/10:00am 10.8 7.7 5.6 70 2.5 NNE 11 17 6 9 1024.4 1021.7 0.0
29/09:30am 9.3 5.9 5.7 78 1.7 NNE 13 15 7 8 1024.2 1021.5 0.0
29/09:00am 7.3 4.4 4.8 84 1.2 N 9 11 5 6 1024.0 1021.3 0.0
29/08:30am 4.9 2.3 4.0 94 0.4 N 7 9 4 5 1023.7 1020.9 0.0
29/07:00am 0.9 -2.7 0.8 99 0.0 N 9 11 5 6 1022.7 1019.9 0.0
29/06:30am 0.7 -2.9 0.6 99 0.0 N 9 11 5 6 1022.5 1019.7 0.0
29/06:00am 0.2 -3.1 0.1 99 0.0 NNE 7 9 4 5 1022.2 1019.5 0.0
29/05:30am 0.3 -4.1 0.2 99 0.0 NNE 13 15 7 8 1022.0 1019.3 0.0
29/05:00am 1.3 -2.2 1.2 99 0.0 NNE 9 9 5 5 1022.0 1019.3 0.0
29/04:59am 1.2 -2.3 1.1 99 0.0 NE 9 9 5 5 1022.0 1019.3 0.0
29/04:30am 0.8 -3.2 0.7 99 0.0 NNE 11 13 6 7 1021.9 1019.1 0.0
29/04:00am 1.7 -2.5 1.6 99 0.0 NNE 13 15 7 8 1022.1 1019.4 0.0
29/03:30am 2.2 -1.5 2.1 99 0.0 NNE 11 13 6 7 1022.2 1019.5 0.0
29/03:00am 1.6 -1.9 1.5 99 0.0 NNE 9 11 5 6 1022.7 1019.9 0.0
29/02:30am 1.3 -2.2 1.2 99 0.0 N 9 11 5 6 1023.0 1020.3 0.0
29/02:00am 3.8 0.3 3.7 99 0.0 NNE 11 11 6 6 1023.2 1020.5 0.0
29/01:48am 2.4 -0.6 2.0 97 0.2 NNE 7 9 4 5 1023.2 1020.5 0.0
29/01:43am 2.0 -1.0 1.0 93 0.4 N 6 9 3 5 1023.2 1020.5 0.0
29/01:30am 2.5 -1.1 0.7 88 0.7 N 9 9 5 5 1023.4 1020.7 0.0
29/01:00am 5.5 3.1 5.4 99 0.0 N 7 9 4 5 1023.4 1020.7 0.0
29/12:30am 5.8 2.7 5.7 99 0.0 N 11 13 6 7 1023.4 1020.7 0.0
29/12:00am 6.0 3.0 5.9 99 0.0 N 11 13 6 7 1023.7 1020.9 0.0
 
Date/Time
EDT
Tmp

°C
App
Tmp
°C
Dew
Point
°C
Rel
Hum
%
Delta-T

°C
Wind Press
QNH
hPa
Press
MSL
hPa
Rain
since
9 am
mm
Dir
 
Spd
km/h
Gust
km/h
Spd
kts
Gust
kts
28/11:30pm 5.4 2.2 5.3 99 0.0 NNE 11 13 6 7 1023.9 1021.1 0.0
28/11:00pm 6.2 2.5 6.1 99 0.0 NE 15 17 8 9 1024.0 1021.3 0.0
28/10:30pm 6.2 2.3 5.5 95 0.3 NNE 15 17 8 9 1024.1 1021.4 0.0
28/10:00pm 7.3 3.6 6.2 93 0.5 N 15 17 8 9 1024.0 1021.3 0.0
28/09:30pm 8.0 4.4 6.6 91 0.7 NNE 15 17 8 9 1024.0 1021.3 0.0
28/09:00pm 9.1 5.5 6.7 85 1.2 NNE 15 19 8 10 1023.9 1021.1 0.0
28/08:30pm 10.7 7.2 7.0 78 1.9 NE 15 19 8 10 1023.4 1020.7 0.0
28/08:00pm 11.8 8.3 7.1 73 2.4 ENE 15 20 8 11 1023.1 1020.4 0.0
28/07:30pm 10.2 8.4 1.1 53 4.0 CALM 0 0 0 0 1022.9 1020.1 0.0
28/07:00pm 13.3 11.4 0.7 42 5.6 CALM 0 0 0 0 1022.3 1019.6 0.0
28/06:30pm 15.6 12.2 1.7 39 6.5 ESE 9 11 5 6 1022.1 1019.4 0.0
28/06:00pm 17.6 15.3 0.3 31 7.9 S 2 15 1 8 1021.9 1019.1 0.0
28/05:30pm 18.4 14.7 0.1 29 8.4 SSE 9 17 5 9 1022.0 1019.3 0.0
28/05:00pm 18.6 15.1 1.2 31 8.2 NE 9 17 5 9 1022.0 1019.3 0.0
28/04:30pm 19.2 16.4 2.1 32 8.2 NW 6 11 3 6 1022.1 1019.4 0.0
28/04:00pm 18.3 14.4 1.3 32 8.0 NNE 11 19 6 10 1022.2 1019.5 0.0
28/03:30pm 18.2 14.0 1.7 33 7.8 NE 13 20 7 11 1021.9 1019.1 0.0
28/03:00pm 17.8 15.1 2.5 36 7.3 N 6 17 3 9 1022.5 1019.7 0.0
28/02:30pm 17.5 15.0 3.8 40 6.7 SE 6 15 3 8 1022.7 1019.9 0.0
28/02:00pm 16.8 13.7 3.5 41 6.4 NE 9 15 5 8 1023.2 1020.5 0.0
28/01:30pm 15.7 13.2 3.5 44 5.9 SSE 6 13 3 7 1023.3 1020.6 0.0
28/01:00pm 15.1 12.6 3.6 46 5.5 S 6 9 3 5 1023.8 1021.0 0.0
28/12:30pm 14.0 11.3 3.5 49 5.0 WSW 7 11 4 6 1024.4 1021.7 0.0
28/12:00pm 13.5 10.4 3.8 52 4.6 SW 9 15 5 8 1024.8 1022.0 0.0
28/11:30am 12.8 9.8 4.0 55 4.2 W 9 15 5 8 1025.1 1022.4 0.0
28/11:00am 11.7 8.6 3.7 58 3.7 SW 9 19 5 10 1025.2 1022.5 0.0
28/10:30am 10.7 6.8 3.3 60 3.4 SW 13 20 7 11 1025.2 1022.5 0.0
28/10:00am 9.6 5.3 3.4 65 2.8 SW 15 24 8 13 1025.2 1022.5 0.0
28/09:30am 9.0 4.7 3.2 67 2.6 SW 15 24 8 13 1025.2 1022.5 0.0
28/09:00am 8.0 4.2 3.7 74 1.9 SSW 13 17 7 9 1025.1 1022.4 0.0
28/08:30am 5.8 4.6 4.4 91 0.6 CALM 0 0 0 0 1024.9 1022.1 0.0
28/08:00am 1.6 -0.2 1.5 99 0.0 CALM 0 6 0 3 1024.8 1022.0 0.0
28/07:30am -1.0 -3.2 -1.7 95 0.2 CALM 0 0 0 0 1024.3 1021.6 0.0
28/07:00am 1.2 -1.8 1.1 99 0.0 W 6 11 3 6 1023.7 1020.9 0.0
28/06:30am -0.2 -3.4 -0.5 98 0.1 WSW 6 11 3 6 1023.4 1020.7 0.0
28/06:00am 0.4 -1.7 -1.0 90 0.5 CALM 0 0 0 0 1023.3 1020.6 0.0
28/05:30am 1.8 -0.6 -0.6 84 0.9 SSW 2 6 1 3 1023.0 1020.3 0.0
28/05:00am 4.6 1.6 2.3 85 1.0 W 7 9 4 5 1022.8 1020.0 0.0
28/04:30am 5.3 1.7 3.2 86 0.9 WSW 11 20 6 11 1022.7 1019.9 0.0
28/04:00am 5.8 1.2 3.5 85 1.0 SW 17 20 9 11 1022.5 1019.7 0.0
28/03:30am 6.1 2.2 3.4 83 1.2 WSW 13 15 7 8 1022.6 1019.8 0.0
28/03:00am 6.8 3.8 4.1 83 1.2 SW 9 13 5 7 1022.8 1020.0 0.0
28/02:30am 6.7 3.7 3.9 82 1.3 WSW 9 15 5 8 1022.8 1020.0 0.0
28/02:00am 7.5 4.0 3.4 75 1.8 SW 11 15 6 8 1022.7 1019.9 0.0
28/01:30am 8.3 4.5 3.9 74 2.0 SSW 13 15 7 8 1022.6 1019.8 0.0
28/01:00am 8.8 4.8 3.0 67 2.6 SW 13 17 7 9 1022.7 1019.9 0.0
28/12:30am 8.0 2.9 2.9 70 2.3 SW 19 24 10 13 1022.5 1019.7 0.0
28/12:00am 8.0 4.8 3.1 71 2.2 W 9 15 5 8 1022.3 1019.6 0.0
 
Date/Time
EDT
Tmp

°C
App
Tmp
°C
Dew
Point
°C
Rel
Hum
%
Delta-T

°C
Wind Press
QNH
hPa
Press
MSL
hPa
Rain
since
9 am
mm
Dir
 
Spd
km/h
Gust
km/h
Spd
kts
Gust
kts
27/11:30pm 9.2 4.6 3.6 68 2.6 WSW 17 20 9 11 1022.1 1019.4 0.0
27/11:00pm 9.7 6.6 3.7 66 2.8 W 9 17 5 9 1022.2 1019.5 0.0
27/10:30pm 10.3 6.1 3.8 64 3.0 WSW 15 19 8 10 1022.1 1019.4 0.0
27/10:00pm 10.4 6.6 3.7 63 3.1 W 13 19 7 10 1021.9 1019.1 0.0

Latest Capital City Observations: Canberra | Sydney | Melbourne | Brisbane | Adelaide | Perth | Hobart | Darwin

Other Formats:

Comma delimited format used in spreadsheet applications
http://www.bom.gov.au/fwo/IDN60903/IDN60903.94921.axf

JavaScript Object Notation format (JSON) in row-major order
http://www.bom.gov.au/fwo/IDN60903/IDN60903.94921.json